createdAt,value
2022-11-19T00:02:28.421Z,54
2022-11-19T00:12:28.098Z,54
2022-11-19T00:22:28.232Z,54
2022-11-19T00:32:28.107Z,54
2022-11-19T00:42:28.242Z,54
2022-11-19T00:52:28.100Z,54
2022-11-19T01:02:28.222Z,54
2022-11-19T01:12:28.293Z,54
2022-11-19T01:22:28.211Z,54
2022-11-19T01:32:28.297Z,54
2022-11-19T01:42:28.214Z,54
2022-11-19T01:52:28.301Z,54
2022-11-19T02:02:28.222Z,54
2022-11-19T02:12:28.266Z,54
2022-11-19T02:22:28.193Z,56
2022-11-19T02:32:28.273Z,55.5
2022-11-19T02:42:28.411Z,55
2022-11-19T02:52:28.274Z,56
2022-11-19T03:02:28.388Z,56
2022-11-19T03:12:28.277Z,55
2022-11-19T03:22:28.410Z,54.5
2022-11-19T03:32:28.269Z,54.5
2022-11-19T03:42:28.392Z,54.5
2022-11-19T03:52:28.464Z,54.5
2022-11-19T04:02:28.370Z,56
2022-11-19T04:12:28.445Z,54.5
2022-11-19T04:22:28.382Z,56
2022-11-19T04:32:28.439Z,56
2022-11-19T04:42:28.364Z,56
2022-11-19T04:52:28.450Z,56
2022-11-19T05:02:28.359Z,56
2022-11-19T05:12:28.448Z,56
2022-11-19T05:22:28.578Z,56
2022-11-19T05:32:28.431Z,56
2022-11-19T05:42:28.544Z,56
2022-11-19T05:52:28.438Z,56
2022-11-19T06:02:28.596Z,56
2022-11-19T06:12:28.412Z,56
2022-11-19T06:22:28.542Z,56
2022-11-19T06:32:28.425Z,56
2022-11-19T06:42:28.547Z,56
2022-11-19T06:52:28.623Z,56
2022-11-19T07:02:28.547Z,56
2022-11-19T07:12:28.623Z,56
2022-11-19T07:22:28.527Z,56
2022-11-19T07:32:28.609Z,56
2022-11-19T07:42:28.536Z,54.5
2022-11-19T07:52:28.606Z,54.5
2022-11-19T08:02:28.717Z,54.5
2022-11-19T08:12:28.595Z,54.5
2022-11-19T08:22:28.721Z,54.5
2022-11-19T08:32:28.578Z,54.5
2022-11-19T08:42:28.731Z,54.5
2022-11-19T08:52:28.588Z,53
2022-11-19T09:02:28.710Z,52.5
2022-11-19T09:12:28.583Z,52.5
2022-11-19T09:22:28.720Z,52.5
2022-11-19T09:32:28.792Z,52.5
2022-11-19T09:42:28.702Z,52.5
2022-11-19T09:52:28.781Z,52.5
2022-11-19T10:02:28.731Z,52.5
2022-11-19T10:12:28.786Z,52.5
2022-11-19T10:22:28.694Z,52.5
2022-11-19T10:32:28.762Z,52.5
2022-11-19T10:42:28.864Z,52.5
2022-11-19T10:52:28.750Z,54
2022-11-19T11:02:28.904Z,54
2022-11-19T11:12:28.761Z,54
2022-11-19T11:22:28.909Z,54
2022-11-19T11:32:28.753Z,52.5
2022-11-19T11:42:29.161Z,52.5
2022-11-19T11:52:28.754Z,52.5
2022-11-19T12:02:28.912Z,52.5
2022-11-19T12:12:29.399Z,52.5
2022-11-19T12:22:29.073Z,52.5
2022-11-19T12:32:28.933Z,52.5
2022-11-19T12:42:28.852Z,52.5
2022-11-19T12:52:28.945Z,52.5
2022-11-19T13:02:28.837Z,52.5
2022-11-19T13:12:28.921Z,52.5
2022-11-19T13:22:28.862Z,52.5
2022-11-19T13:32:28.908Z,52.5
2022-11-19T13:42:29.106Z,53.5
2022-11-19T13:52:28.918Z,52.5
2022-11-19T14:02:29.117Z,52.5
2022-11-19T14:12:29.045Z,52.5
2022-11-19T14:22:29.053Z,52.5
2022-11-19T14:32:28.915Z,54
2022-11-19T14:42:29.032Z,54
2022-11-19T14:52:29.091Z,54
2022-11-19T15:02:29.017Z,54
2022-11-19T15:12:29.094Z,54
2022-11-19T15:22:29.031Z,52.5
2022-11-19T15:32:29.088Z,54
2022-11-19T15:42:29.014Z,54
2022-11-19T15:52:29.094Z,54
2022-11-19T16:02:29.070Z,54
2022-11-19T16:12:29.089Z,54
2022-11-19T16:22:29.340Z,54
2022-11-19T16:32:29.729Z,54
2022-11-19T16:42:29.202Z,54
2022-11-19T16:52:29.082Z,54
2022-11-19T17:02:29.212Z,54
2022-11-19T17:12:29.072Z,54
2022-11-19T17:22:29.205Z,54
2022-11-19T17:32:29.085Z,54
2022-11-19T17:42:29.198Z,54
2022-11-19T17:52:29.491Z,56
2022-11-19T18:02:29.219Z,56
2022-11-19T18:12:29.324Z,56
2022-11-19T18:22:29.192Z,56
2022-11-19T18:32:29.302Z,56
2022-11-19T18:42:29.211Z,56
2022-11-19T18:52:29.277Z,56
2022-11-19T19:02:29.179Z,56
2022-11-19T19:12:29.253Z,56
2022-11-19T19:22:29.393Z,56
2022-11-19T19:32:29.273Z,56
2022-11-19T19:42:29.670Z,56
2022-11-19T19:52:29.259Z,56
2022-11-19T20:02:29.374Z,56
2022-11-19T20:12:29.267Z,56
2022-11-19T20:22:29.378Z,56
2022-11-19T20:32:29.440Z,56
2022-11-19T20:42:29.364Z,56
2022-11-19T20:52:29.436Z,56
2022-11-19T21:02:29.480Z,56
2022-11-19T21:12:29.456Z,56
2022-11-19T21:22:29.372Z,56
2022-11-19T21:32:29.440Z,56
2022-11-19T21:42:29.444Z,56
2022-11-19T21:52:29.413Z,56
2022-11-19T22:02:29.540Z,56
2022-11-19T22:12:29.429Z,56
2022-11-19T22:22:29.573Z,56
2022-11-19T22:32:29.411Z,56
2022-11-19T22:42:29.561Z,56
2022-11-19T22:52:29.448Z,56
2022-11-19T23:02:29.569Z,56
2022-11-19T23:12:29.464Z,56
2022-11-19T23:22:29.534Z,56
2022-11-19T23:32:29.611Z,56
2022-11-19T23:42:29.535Z,56
2022-11-19T23:52:29.621Z,56
